Time;durP1;ratioP1;P1;durP2;ratioP2;P2;SDS_P1;SDS_P2;PMS_P1;PMS_P2;Temp;Humidity;BMP_temperature;BMP_pressure;BME280_temperature;BME280_humidity;BME280_pressure;Samples;Min_cycle;Max_cycle;Signal;HPM_P1;HPM_P2
2023/04/01 00:01:05;;;;;;;10.07;4.20;;;12.10;99.90;;;;;;4950643;28;20472;-86
2023/04/01 00:03:32;;;;;;;9.98;4.32;;;12.10;99.90;;;;;;4950271;28;20031;-87
2023/04/01 00:05:59;;;;;;;12.77;4.57;;;12.10;99.90;;;;;;4949426;28;20115;-87
2023/04/01 00:08:26;;;;;;;8.00;3.00;;;12.10;99.90;;;;;;4950251;28;20042;-87
2023/04/01 00:10:52;;;;;;;9.60;2.80;;;12.00;99.90;;;;;;4950470;28;20416;-87
2023/04/01 00:13:18;;;;;;;7.05;2.40;;;11.90;99.90;;;;;;4950402;28;20483;-87
2023/04/01 00:15:44;;;;;;;5.78;1.92;;;11.80;99.90;;;;;;4950879;28;20019;-87
2023/04/01 00:18:11;;;;;;;5.50;1.70;;;11.90;99.90;;;;;;4950103;28;20039;-87
2023/04/01 00:20:36;;;;;;;7.65;2.00;;;11.80;99.90;;;;;;4953241;28;20032;-87
2023/04/01 00:23:02;;;;;;;6.85;1.70;;;11.90;99.90;;;;;;4952253;28;20129;-86
2023/04/01 00:25:28;;;;;;;6.90;1.92;;;11.80;99.90;;;;;;4953433;28;20030;-87
2023/04/01 00:27:54;;;;;;;4.00;1.60;;;12.10;99.90;;;;;;5017261;28;20051;-86
2023/04/01 00:30:20;;;;;;;6.57;1.60;;;11.70;99.90;;;;;;4934403;29;20024;-86
2023/04/01 00:32:46;;;;;;;6.88;2.05;;;11.80;99.90;;;;;;4932933;29;20092;-87
2023/04/01 00:35:12;;;;;;;5.65;2.00;;;11.60;99.90;;;;;;4934578;29;20477;-87
2023/04/01 00:37:39;;;;;;;6.35;2.20;;;11.40;99.90;;;;;;4934209;29;20032;-87
2023/04/01 00:40:06;;;;;;;9.48;2.10;;;11.60;99.90;;;;;;4935025;29;20106;-87
2023/04/01 00:42:32;;;;;;;6.93;2.25;;;11.30;99.90;;;;;;4934254;29;20203;-87
2023/04/01 00:45:18;;;;;;;6.35;2.08;;;11.30;99.90;;;;;;4937718;29;20023;-87
2023/04/01 00:47:44;;;;;;;5.97;2.47;;;11.40;99.90;;;;;;4953181;28;20106;-86
2023/04/01 00:50:10;;;;;;;9.05;2.28;;;11.40;99.90;;;;;;4953342;28;20508;-87
2023/04/01 00:52:35;;;;;;;6.18;1.60;;;11.40;99.90;;;;;;4951938;29;20031;-87
2023/04/01 00:55:05;;;;;;;6.53;2.13;;;11.60;99.90;;;;;;4951904;29;20032;-86
2023/04/01 00:57:36;;;;;;;9.05;2.03;;;11.40;99.90;;;;;;4952220;29;20114;-87
2023/04/01 01:00:09;;;;;;;6.38;2.20;;;11.70;99.90;;;;;;4953005;28;20023;-87
2023/04/01 01:02:35;;;;;;;6.18;2.00;;;11.30;99.90;;;;;;4952809;28;20031;-88
2023/04/01 01:05:01;;;;;;;7.00;1.83;;;11.40;99.90;;;;;;4951772;28;20055;-87
2023/04/01 01:07:54;;;;;;;7.93;1.70;;;11.30;99.90;;;;;;4951389;28;20063;-87
2023/04/01 01:10:49;;;;;;;10.25;2.10;;;11.50;99.90;;;;;;4952799;28;20077;-86
2023/04/01 01:13:26;;;;;;;7.35;1.60;;;11.70;99.90;;;;;;4951654;28;20044;-86
2023/04/01 01:16:29;;;;;;;4.60;1.75;;;11.40;99.90;;;;;;4952623;28;20028;-87
2023/04/01 01:19:20;;;;;;;7.45;1.80;;;11.50;99.90;;;;;;4950459;29;20039;-87
2023/04/01 01:21:59;;;;;;;8.88;1.90;;;11.50;99.90;;;;;;4912257;29;20079;-86
2023/04/01 01:24:39;;;;;;;8.65;2.10;;;11.60;99.90;;;;;;4912350;28;20111;-86
2023/04/01 01:27:13;;;;;;;11.35;2.20;;;11.60;99.90;;;;;;4913083;28;20082;-87
2023/04/01 01:30:20;;;;;;;7.93;1.90;;;11.40;99.90;;;;;;4912309;29;20024;-87
2023/04/01 01:32:57;;;;;;;8.05;1.85;;;11.40;99.90;;;;;;4912224;29;20040;-87
2023/04/01 01:35:28;;;;;;;9.60;2.03;;;11.40;99.90;;;;;;4912337;29;20024;-87
2023/04/01 01:38:01;;;;;;;7.13;1.80;;;11.30;99.90;;;;;;4912283;29;20097;-87
2023/04/01 01:40:29;;;;;;;8.10;2.00;;;11.20;99.90;;;;;;4912608;29;20032;-87
2023/04/01 01:42:58;;;;;;;9.07;1.98;;;11.10;99.90;;;;;;4912139;29;20032;-87
2023/04/01 01:45:26;;;;;;;6.82;2.33;;;11.10;99.90;;;;;;4902895;28;20067;-87
2023/04/01 01:47:53;;;;;;;6.20;2.10;;;11.10;99.90;;;;;;4931197;29;20055;-87
2023/04/01 01:50:20;;;;;;;9.20;2.25;;;11.10;99.90;;;;;;4931359;28;20058;-86
2023/04/01 01:52:46;;;;;;;10.20;2.08;;;11.10;99.90;;;;;;4913905;28;20099;-87
2023/04/01 01:55:33;;;;;;;6.22;1.80;;;11.10;99.90;;;;;;4893238;29;20032;-86
2023/04/01 01:58:03;;;;;;;6.10;2.10;;;11.20;99.90;;;;;;4899848;29;20055;-87
2023/04/01 02:00:29;;;;;;;5.50;1.85;;;11.20;99.90;;;;;;4931590;29;20028;-87
2023/04/01 02:02:56;;;;;;;7.40;2.20;;;11.30;99.90;;;;;;4932173;29;20055;-87
2023/04/01 02:05:25;;;;;;;6.93;2.05;;;11.30;99.90;;;;;;4931663;29;20020;-87
2023/04/01 02:08:01;;;;;;;8.25;1.92;;;11.50;99.90;;;;;;4933178;29;20036;-87
2023/04/01 02:10:28;;;;;;;4.78;2.00;;;11.30;99.90;;;;;;4933033;29;20089;-87
2023/04/01 02:12:59;;;;;;;7.35;2.03;;;11.40;99.90;;;;;;4933012;29;20493;-87
2023/04/01 02:15:27;;;;;;;6.43;1.95;;;11.30;99.90;;;;;;4932756;29;20032;-87
2023/04/01 02:17:54;;;;;;;9.23;2.15;;;11.40;99.90;;;;;;4932809;29;20048;-87
2023/04/01 02:20:22;;;;;;;8.48;1.83;;;11.40;99.90;;;;;;4933113;29;20428;-87
2023/04/01 02:22:51;;;;;;;9.20;2.28;;;11.40;99.90;;;;;;4932726;29;20063;-88
2023/04/01 02:25:38;;;;;;;6.65;2.03;;;11.50;99.90;;;;;;4932780;29;20030;-87
2023/04/01 02:28:06;;;;;;;7.40;2.22;;;11.50;99.90;;;;;;4931511;29;20067;-87
2023/04/01 02:30:35;;;;;;;6.88;2.10;;;11.30;99.90;;;;;;4931122;29;20038;-87
2023/04/01 02:33:02;;;;;;;5.82;1.60;;;11.30;99.90;;;;;;4932561;29;20024;-87
2023/04/01 02:35:28;;;;;;;8.18;2.03;;;11.40;99.90;;;;;;4932871;29;20118;-87
2023/04/01 02:37:55;;;;;;;5.82;1.63;;;11.40;99.90;;;;;;4932673;29;20071;-87
2023/04/01 02:40:21;;;;;;;6.97;1.75;;;11.40;99.90;;;;;;4932626;29;20063;-87
2023/04/01 02:42:46;;;;;;;6.40;2.20;;;11.30;99.90;;;;;;4932022;29;20110;-86
2023/04/01 02:45:13;;;;;;;3.80;1.35;;;11.30;99.90;;;;;;4937615;29;20672;-86
2023/04/01 02:47:39;;;;;;;6.85;1.70;;;11.30;99.90;;;;;;4951497;28;20497;-87
2023/04/01 02:50:06;;;;;;;5.30;1.80;;;11.40;99.90;;;;;;4950206;29;20061;-87
2023/04/01 02:52:31;;;;;;;5.93;1.65;;;11.30;99.90;;;;;;4951518;28;20057;-87
2023/04/01 02:54:58;;;;;;;8.30;1.92;;;11.30;99.90;;;;;;4951438;28;20027;-86
2023/04/01 02:57:24;;;;;;;6.95;1.40;;;11.30;99.90;;;;;;4951402;28;20027;-87
2023/04/01 02:59:50;;;;;;;5.97;2.00;;;11.40;99.90;;;;;;4951298;28;20027;-85
2023/04/01 03:02:16;;;;;;;5.68;1.40;;;11.60;99.90;;;;;;4950543;29;20035;-84
2023/04/01 03:04:42;;;;;;;4.93;1.58;;;11.40;99.90;;;;;;4951342;28;20054;-84
2023/04/01 03:07:09;;;;;;;5.10;1.52;;;11.40;99.90;;;;;;4950417;28;20062;-84
2023/04/01 03:09:36;;;;;;;6.00;1.58;;;11.60;99.90;;;;;;4951390;28;20023;-84
2023/04/01 03:12:02;;;;;;;5.25;1.52;;;11.60;99.90;;;;;;4950918;28;20101;-85
2023/04/01 03:14:28;;;;;;;5.00;1.67;;;11.50;99.90;;;;;;4951491;28;20027;-85
2023/04/01 03:16:54;;;;;;;4.18;1.25;;;11.90;99.90;;;;;;4950986;28;20111;-84
2023/04/01 03:19:20;;;;;;;4.28;1.23;;;11.60;99.90;;;;;;4951140;28;20035;-85
2023/04/01 03:21:45;;;;;;;5.28;1.25;;;11.50;99.90;;;;;;4951083;28;20488;-85
2023/04/01 03:24:11;;;;;;;4.45;1.30;;;11.50;99.90;;;;;;4950961;28;20032;-84
2023/04/01 03:26:36;;;;;;;4.78;1.23;;;11.40;99.90;;;;;;4941016;28;20048;-84
2023/04/01 03:29:02;;;;;;;5.07;1.50;;;11.50;99.90;;;;;;4931877;29;20146;-84
2023/04/01 03:31:28;;;;;;;5.70;1.60;;;11.50;99.90;;;;;;4931901;29;20032;-84
2023/04/01 03:33:53;;;;;;;5.22;1.50;;;11.50;99.90;;;;;;4930702;29;20347;-85
2023/04/01 03:36:19;;;;;;;4.32;1.42;;;11.50;99.90;;;;;;4932270;29;20107;-84
2023/04/01 03:38:45;;;;;;;4.68;1.30;;;11.50;99.90;;;;;;4931704;29;20439;-85
2023/04/01 03:41:17;;;;;;;4.40;1.35;;;11.60;99.90;;;;;;4931446;29;20034;-84
2023/04/01 03:43:43;;;;;;;3.53;1.35;;;11.60;99.90;;;;;;4930492;29;20035;-84
2023/04/01 03:46:09;;;;;;;3.15;1.23;;;11.40;99.90;;;;;;4944346;29;20027;-84
2023/04/01 03:48:35;;;;;;;2.90;0.93;;;11.70;99.90;;;;;;4950837;28;20042;-85
2023/04/01 03:51:01;;;;;;;5.65;1.35;;;11.90;99.90;;;;;;4949872;29;20023;-84
2023/04/01 03:53:27;;;;;;;4.25;1.35;;;11.50;99.90;;;;;;4949377;28;20028;-84
2023/04/01 03:55:53;;;;;;;3.70;1.27;;;11.90;99.90;;;;;;4952853;28;20023;-85
2023/04/01 03:58:19;;;;;;;4.43;1.40;;;11.70;99.90;;;;;;4954004;28;20065;-85
2023/04/01 04:00:45;;;;;;;5.65;1.10;;;11.70;99.90;;;;;;4952634;29;20031;-84
2023/04/01 04:03:10;;;;;;;5.13;1.30;;;11.90;99.90;;;;;;4953972;28;20036;-84
2023/04/01 04:05:36;;;;;;;3.92;0.98;;;11.60;99.90;;;;;;4953849;28;20031;-85
2023/04/01 04:08:02;;;;;;;3.28;1.10;;;11.50;99.90;;;;;;4953862;28;20167;-85
2023/04/01 04:10:29;;;;;;;6.07;1.05;;;11.40;99.90;;;;;;4953850;28;20493;-84
2023/04/01 04:12:55;;;;;;;4.55;1.25;;;11.40;99.90;;;;;;4952801;29;20443;-85
2023/04/01 04:15:21;;;;;;;3.42;1.13;;;11.70;99.90;;;;;;4953689;28;20019;-85
2023/04/01 04:17:47;;;;;;;3.65;1.27;;;11.40;99.90;;;;;;4952434;29;20043;-84
2023/04/01 04:20:13;;;;;;;3.10;1.20;;;11.40;99.90;;;;;;4953785;28;20023;-85
2023/04/01 04:22:39;;;;;;;2.15;0.90;;;11.50;99.90;;;;;;4953698;28;20028;-85
2023/04/01 04:25:05;;;;;;;5.45;1.20;;;11.50;99.90;;;;;;4953702;28;20431;-85
2023/04/01 04:27:31;;;;;;;3.85;1.20;;;11.50;99.90;;;;;;4937244;28;20052;-84
2023/04/01 04:29:56;;;;;;;3.35;1.05;;;11.50;99.90;;;;;;4934415;29;20043;-84
2023/04/01 04:32:22;;;;;;;4.65;1.27;;;11.40;99.90;;;;;;4934313;29;20122;-84
2023/04/01 04:34:48;;;;;;;4.25;1.20;;;11.20;99.90;;;;;;4934241;29;20024;-85
2023/04/01 04:37:13;;;;;;;4.82;1.33;;;11.30;99.90;;;;;;4934532;29;20042;-85
2023/04/01 04:39:39;;;;;;;4.70;1.00;;;11.30;99.90;;;;;;4932949;29;20557;-84
2023/04/01 04:42:05;;;;;;;4.20;1.00;;;11.40;99.90;;;;;;4934121;29;20039;-84
2023/04/01 04:44:31;;;;;;;6.68;1.40;;;11.40;99.90;;;;;;4933950;29;20107;-84
2023/04/01 04:46:56;;;;;;;4.75;1.30;;;11.90;99.90;;;;;;4953510;29;20374;-85
2023/04/01 04:49:22;;;;;;;3.97;1.30;;;11.40;99.90;;;;;;4953264;28;20025;-86
2023/04/01 04:51:48;;;;;;;6.13;1.20;;;11.40;99.90;;;;;;4952283;28;20035;-84
2023/04/01 04:54:13;;;;;;;5.82;1.30;;;11.70;99.90;;;;;;4953074;28;20031;-84
2023/04/01 04:56:39;;;;;;;4.68;1.33;;;11.20;99.90;;;;;;4953537;28;20452;-85
2023/04/01 04:59:06;;;;;;;2.47;0.80;;;11.20;99.90;;;;;;4953438;28;20063;-85
2023/04/01 05:01:33;;;;;;;7.55;1.60;;;11.20;99.90;;;;;;4953353;28;20515;-85
2023/04/01 05:03:59;;;;;;;6.15;2.95;;;11.40;99.90;;;;;;4953404;28;20444;-85
2023/04/01 05:06:25;;;;;;;7.45;3.60;;;11.50;99.90;;;;;;4952831;28;20032;-85
2023/04/01 05:08:51;;;;;;;4.80;2.30;;;11.40;99.90;;;;;;4951701;28;20031;-85
2023/04/01 05:11:18;;;;;;;4.15;1.80;;;11.40;99.90;;;;;;4951933;29;20050;-85
2023/04/01 05:13:45;;;;;;;4.65;1.42;;;11.50;99.90;;;;;;4953036;28;20081;-85
2023/04/01 05:16:16;;;;;;;4.47;1.30;;;11.50;99.90;;;;;;4952182;29;20114;-85
2023/04/01 05:18:42;;;;;;;4.28;1.38;;;11.50;99.90;;;;;;4953349;28;20031;-85
2023/04/01 05:21:09;;;;;;;4.30;1.65;;;11.90;99.90;;;;;;4953552;28;20031;-85
2023/04/01 05:23:36;;;;;;;6.00;1.63;;;11.10;99.90;;;;;;4952898;28;20035;-85
2023/04/01 05:26:10;;;;;;;3.70;1.20;;;11.20;99.90;;;;;;4953282;28;20042;-85
2023/04/01 05:28:35;;;;;;;4.45;1.33;;;11.20;99.90;;;;;;4952913;28;20027;-85
2023/04/01 05:31:02;;;;;;;5.28;1.23;;;11.10;99.90;;;;;;4953115;28;20027;-86
2023/04/01 05:33:29;;;;;;;4.97;1.55;;;11.20;99.90;;;;;;4952898;28;20035;-85
2023/04/01 05:35:55;;;;;;;5.88;1.10;;;11.20;99.90;;;;;;4953576;28;20027;-85
2023/04/01 05:38:21;;;;;;;5.20;1.85;;;11.30;99.90;;;;;;4952262;28;20035;-86
2023/04/01 05:40:46;;;;;;;4.85;1.63;;;11.30;99.90;;;;;;4952596;28;20097;-84
2023/04/01 05:43:12;;;;;;;4.45;1.63;;;11.40;99.90;;;;;;4952622;28;20449;-85
2023/04/01 05:45:38;;;;;;;7.50;1.40;;;11.50;99.90;;;;;;4952244;28;20023;-85
2023/04/01 05:48:04;;;;;;;4.07;1.20;;;11.60;99.90;;;;;;4952380;28;20064;-85
2023/04/01 05:50:30;;;;;;;4.35;0.95;;;11.70;99.90;;;;;;4952831;28;20034;-85
2023/04/01 05:52:56;;;;;;;3.72;1.27;;;11.70;99.90;;;;;;4951887;28;20069;-86
2023/04/01 05:55:22;;;;;;;2.92;1.05;;;11.60;99.90;;;;;;4954115;28;20408;-87
2023/04/01 05:57:49;;;;;;;5.03;1.08;;;11.60;99.90;;;;;;4956405;28;20036;-91
2023/04/01 06:00:16;;;;;;;3.47;0.90;;;11.90;99.90;;;;;;4953571;28;20058;-88
2023/04/01 06:02:42;;;;;;;3.70;1.48;;;11.60;99.90;;;;;;4952305;28;20485;-87
2023/04/01 06:05:14;;;;;;;4.45;1.17;;;11.70;99.90;;;;;;4953185;28;20030;-85
2023/04/01 06:07:39;;;;;;;5.60;1.20;;;11.50;99.90;;;;;;4952377;28;20024;-85
2023/04/01 06:10:19;;;;;;;4.97;1.02;;;11.20;99.90;;;;;;4952755;28;20024;-85
2023/04/01 06:12:45;;;;;;;2.72;0.82;;;11.30;99.90;;;;;;4952338;28;20027;-85
2023/04/01 06:15:25;;;;;;;2.95;1.00;;;11.40;99.90;;;;;;4952610;28;20034;-84
2023/04/01 06:18:12;;;;;;;2.50;0.93;;;11.40;99.90;;;;;;4951517;28;20047;-85
2023/04/01 06:20:56;;;;;;;2.53;1.17;;;11.50;99.90;;;;;;4951996;28;20035;-85
2023/04/01 06:23:39;;;;;;;3.83;1.73;;;11.70;99.90;;;;;;4952321;28;20106;-85
2023/04/01 06:26:15;;;;;;;4.60;1.40;;;11.80;99.90;;;;;;4947460;28;20044;-85
2023/04/01 06:29:25;;;;;;;4.25;1.63;;;11.90;99.90;;;;;;4933081;29;20537;-85
2023/04/01 06:32:15;;;;;;;3.60;1.20;;;11.90;99.90;;;;;;5030975;28;20159;-85
2023/04/01 06:34:58;;;;;;;4.55;1.13;;;12.00;99.90;;;;;;5032414;28;20037;-85
2023/04/01 06:37:24;;;;;;;7.43;1.33;;;11.90;99.90;;;;;;5030783;28;20527;-85
2023/04/01 06:39:52;;;;;;;4.22;1.38;;;12.00;99.90;;;;;;5030770;28;20080;-85
2023/04/01 06:42:48;;;;;;;4.20;1.40;;;12.20;99.90;;;;;;5030837;28;20033;-85
2023/04/01 06:45:28;;;;;;;5.45;1.30;;;12.30;99.90;;;;;;5030545;28;20075;-85
2023/04/01 06:48:12;;;;;;;3.85;1.30;;;12.20;99.90;;;;;;5030888;28;20035;-85
2023/04/01 06:50:45;;;;;;;5.63;1.23;;;12.30;99.90;;;;;;5030289;28;20080;-85
2023/04/01 06:54:07;;;;;;;4.03;1.25;;;12.30;99.90;;;;;;5030506;28;20037;-85
2023/04/01 06:56:36;;;;;;;5.70;1.38;;;12.20;99.90;;;;;;4952372;29;20019;-85
2023/04/01 06:59:12;;;;;;;5.55;1.23;;;12.30;99.90;;;;;;4952405;28;20054;-84
2023/04/01 07:01:49;;;;;;;4.65;1.45;;;12.30;99.90;;;;;;4968392;28;20027;-85
2023/04/01 07:04:20;;;;;;;4.63;1.30;;;12.50;99.90;;;;;;4951756;28;20118;-85
2023/04/01 07:07:09;;;;;;;4.40;1.35;;;12.70;99.90;;;;;;4971548;28;20082;-85
2023/04/01 07:09:41;;;;;;;5.57;2.05;;;12.70;99.90;;;;;;4971682;28;20121;-85
2023/04/01 07:12:21;;;;;;;3.95;1.20;;;12.40;99.90;;;;;;4971634;28;20041;-86
2023/04/01 07:14:50;;;;;;;5.50;1.52;;;12.30;99.90;;;;;;4971791;28;20133;-85
2023/04/01 07:17:21;;;;;;;3.22;1.70;;;12.50;99.90;;;;;;4971738;28;20050;-85
2023/04/01 07:20:01;;;;;;;3.95;1.50;;;12.30;99.90;;;;;;4971317;28;20034;-85
2023/04/01 07:22:35;;;;;;;4.15;1.30;;;12.50;99.90;;;;;;4971651;28;20034;-85
2023/04/01 07:25:25;;;;;;;4.05;1.70;;;12.20;99.90;;;;;;4971408;28;20042;-85
2023/04/01 07:27:55;;;;;;;2.95;1.30;;;12.30;99.90;;;;;;4952889;28;20055;-85
2023/04/01 07:30:24;;;;;;;5.55;1.60;;;12.20;99.90;;;;;;4947415;28;20036;-85
2023/04/01 07:33:11;;;;;;;3.95;1.40;;;12.40;99.90;;;;;;4935481;29;20085;-85
2023/04/01 07:35:47;;;;;;;4.53;1.33;;;12.50;99.90;;;;;;4935880;29;20039;-86
2023/04/01 07:38:38;;;;;;;5.32;1.90;;;12.60;99.90;;;;;;4934707;29;20453;-85
2023/04/01 07:41:12;;;;;;;5.28;1.30;;;12.70;99.90;;;;;;4935714;29;20027;-85
2023/04/01 07:43:59;;;;;;;4.10;1.85;;;12.80;99.90;;;;;;4935809;29;20059;-86
2023/04/01 07:47:01;;;;;;;3.53;0.98;;;13.10;99.90;;;;;;4950462;29;20027;-86
2023/04/01 07:49:34;;;;;;;5.45;2.53;;;12.90;99.90;;;;;;4954505;28;20039;-85
2023/04/01 07:52:02;;;;;;;4.68;1.27;;;13.20;99.90;;;;;;4954660;28;20027;-85
2023/04/01 07:54:39;;;;;;;5.32;1.55;;;13.20;99.90;;;;;;4954566;28;20035;-85
2023/04/01 07:57:15;;;;;;;4.30;1.10;;;13.50;99.90;;;;;;4954520;28;20031;-86
2023/04/01 08:00:08;;;;;;;3.53;1.30;;;13.60;99.90;;;;;;4954409;28;20027;-85
2023/04/01 08:02:58;;;;;;;3.22;1.30;;;13.80;99.90;;;;;;4954162;28;20041;-85
2023/04/01 08:05:31;;;;;;;4.10;1.33;;;14.00;99.90;;;;;;4954649;28;20088;-86
2023/04/01 08:08:25;;;;;;;3.83;1.35;;;13.80;99.90;;;;;;4954326;28;20031;-85
2023/04/01 08:11:02;;;;;;;3.67;1.10;;;14.00;99.90;;;;;;4954328;28;20042;-85
2023/04/01 08:13:49;;;;;;;4.15;1.15;;;14.00;99.90;;;;;;4953018;28;20027;-85
2023/04/01 08:16:17;;;;;;;4.65;1.35;;;13.60;99.90;;;;;;4954008;28;20030;-85
2023/04/01 08:19:14;;;;;;;3.13;1.10;;;13.50;99.90;;;;;;4954260;28;20122;-85
2023/04/01 08:21:46;;;;;;;3.00;1.27;;;13.70;99.90;;;;;;4954154;28;20039;-85
2023/04/01 08:24:35;;;;;;;4.53;1.20;;;13.60;99.90;;;;;;4954062;28;20019;-85
2023/04/01 08:27:09;;;;;;;4.40;1.48;;;13.60;99.90;;;;;;4941820;28;20062;-85
2023/04/01 08:30:03;;;;;;;5.65;1.50;;;13.40;99.90;;;;;;4933765;29;20482;-85
2023/04/01 08:32:38;;;;;;;4.22;1.58;;;13.30;99.90;;;;;;4944897;28;20044;-85
2023/04/01 08:35:20;;;;;;;11.43;5.95;;;13.40;99.90;;;;;;4934993;29;20024;-85
2023/04/01 08:37:48;;;;;;;4.25;1.30;;;13.50;99.90;;;;;;4934812;29;20398;-85
2023/04/01 08:40:28;;;;;;;4.72;1.10;;;13.50;99.90;;;;;;4932909;29;20449;-85
2023/04/01 08:43:06;;;;;;;4.57;1.10;;;13.60;99.90;;;;;;4934654;29;20126;-86
2023/04/01 08:46:01;;;;;;;2.50;1.17;;;13.60;99.90;;;;;;4942046;29;20030;-85
2023/04/01 08:48:44;;;;;;;1.83;0.77;;;13.60;99.90;;;;;;4954204;28;20118;-84
2023/04/01 08:51:42;;;;;;;2.30;0.70;;;13.30;99.90;;;;;;4954150;28;20394;-85
2023/04/01 08:55:00;;;;;;;4.95;1.25;;;13.10;99.90;;;;;;4952693;29;20027;-85
2023/04/01 08:57:59;;;;;;;2.08;0.98;;;13.00;99.90;;;;;;4948866;29;20036;-85
2023/04/01 09:01:03;;;;;;;2.50;1.00;;;13.30;99.90;;;;;;4953290;28;20497;-85
2023/04/01 09:03:44;;;;;;;3.40;1.02;;;13.40;99.90;;;;;;4953038;28;20071;-85
2023/04/01 09:06:27;;;;;;;3.47;1.50;;;13.40;99.90;;;;;;4952584;28;20500;-85
2023/04/01 09:09:17;;;;;;;3.80;1.10;;;13.30;99.90;;;;;;4953689;28;20027;-85
2023/04/01 09:12:18;;;;;;;3.42;1.00;;;13.60;99.90;;;;;;4953542;28;20389;-85
2023/04/01 09:14:46;;;;;;;2.03;0.88;;;13.90;99.90;;;;;;4953243;28;20027;-86
2023/04/01 09:17:37;;;;;;;3.13;1.38;;;14.20;99.90;;;;;;4952031;28;20081;-85
2023/04/01 09:20:25;;;;;;;2.47;0.95;;;14.30;99.90;;;;;;4953547;28;20035;-85
2023/04/01 09:23:15;;;;;;;4.05;1.15;;;14.70;99.90;;;;;;4953341;28;20103;-85
2023/04/01 09:25:44;;;;;;;3.25;0.88;;;14.70;99.90;;;;;;4951442;28;20058;-86
2023/04/01 09:28:12;;;;;;;1.23;0.80;;;14.90;99.90;;;;;;4934164;29;20055;-85
2023/04/01 09:30:55;;;;;;;3.22;0.95;;;15.00;99.90;;;;;;4933632;29;20093;-85
2023/04/01 09:33:56;;;;;;;4.45;1.60;;;15.10;99.90;;;;;;4934035;29;20432;-86
2023/04/01 09:36:24;;;;;;;2.28;1.00;;;14.80;99.90;;;;;;5031705;28;20041;-85
2023/04/01 09:38:55;;;;;;;2.25;1.08;;;14.50;99.90;;;;;;5031759;28;20084;-85
2023/04/01 09:41:35;;;;;;;3.50;1.70;;;14.30;99.90;;;;;;5031862;28;20033;-86
2023/04/01 09:44:03;;;;;;;3.20;1.30;;;14.00;99.90;;;;;;5031539;28;20029;-86
2023/04/01 09:46:32;;;;;;;2.75;0.90;;;13.40;99.90;;;;;;5031817;28;20037;-85
2023/04/01 09:49:17;;;;;;;5.25;1.35;;;13.10;99.90;;;;;;5031627;28;20582;-85
2023/04/01 09:51:49;;;;;;;2.85;0.77;;;12.90;99.90;;;;;;5031605;28;20108;-85
2023/04/01 09:54:48;;;;;;;3.08;1.42;;;12.90;99.90;;;;;;5031561;28;20029;-85
2023/04/01 09:57:44;;;;;;;4.50;0.90;;;13.00;99.90;;;;;;5031723;28;20556;-85
2023/04/01 10:00:21;;;;;;;6.57;2.85;;;12.90;99.90;;;;;;5031483;28;20042;-84
2023/04/01 10:03:10;;;;;;;3.90;1.63;;;12.90;99.90;;;;;;5031586;28;20570;-85
2023/04/01 10:05:54;;;;;;;3.28;1.88;;;13.00;99.90;;;;;;5031407;28;20100;-85
2023/04/01 10:08:31;;;;;;;4.28;2.03;;;13.00;99.90;;;;;;5031288;28;20117;-85
2023/04/01 10:11:15;;;;;;;3.30;1.40;;;12.80;99.90;;;;;;5031482;28;20072;-85
2023/04/01 10:13:46;;;;;;;4.90;1.60;;;13.50;99.90;;;;;;4940631;28;20086;-85
2023/04/01 10:16:40;;;;;;;3.80;1.50;;;14.70;99.90;;;;;;4933606;28;20063;-85
2023/04/01 10:19:30;;;;;;;4.35;1.70;;;15.10;99.90;;;;;;4933390;28;20043;-85
2023/04/01 10:22:03;;;;;;;1.92;1.02;;;17.40;99.90;;;;;;4933398;29;20110;-86
2023/04/01 10:24:47;;;;;;;1.58;0.90;;;20.50;99.90;;;;;;4933367;28;20035;-85
2023/04/01 10:27:44;;;;;;;1.38;0.95;;;18.10;99.90;;;;;;4932848;28;20417;-85
2023/04/01 10:30:28;;;;;;;1.85;1.00;;;16.90;99.90;;;;;;4933165;29;20042;-85
2023/04/01 10:33:38;;;;;;;1.80;0.82;;;16.40;99.90;;;;;;4931845;29;20093;-86
2023/04/01 10:36:25;;;;;;;3.17;1.02;;;16.90;99.90;;;;;;4933319;29;20035;-85
2023/04/01 10:39:15;;;;;;;1.65;1.00;;;17.50;99.90;;;;;;4932987;29;20486;-85
2023/04/01 10:42:02;;;;;;;4.20;1.00;;;16.80;99.90;;;;;;4932631;29;20024;-86
2023/04/01 10:44:49;;;;;;;2.13;1.20;;;15.90;99.90;;;;;;4932911;29;20063;-86
2023/04/01 10:47:38;;;;;;;2.15;1.15;;;15.60;99.90;;;;;;4931753;28;20493;-85
2023/04/01 10:50:25;;;;;;;1.77;0.90;;;16.40;99.90;;;;;;4932898;29;20382;-85
2023/04/01 10:53:28;;;;;;;1.90;0.90;;;18.20;99.90;;;;;;4932853;28;20020;-86
2023/04/01 10:56:15;;;;;;;2.80;1.08;;;20.60;99.90;;;;;;4932459;28;20383;-86
2023/04/01 10:59:12;;;;;;;1.83;1.10;;;19.30;99.90;;;;;;4932758;29;20115;-86
2023/04/01 11:02:00;;;;;;;3.92;1.60;;;21.60;99.90;;;;;;4932852;29;20481;-85
2023/04/01 11:04:44;;;;;;;3.47;1.42;;;23.10;99.90;;;;;;4932229;29;20492;-86
2023/04/01 11:07:46;;;;;;;2.33;1.55;;;22.70;99.90;;;;;;4932659;28;20031;-86
2023/04/01 11:10:53;;;;;;;3.55;1.30;;;23.40;99.90;;;;;;4931206;28;20078;-86
2023/04/01 11:13:21;;;;;;;1.50;0.82;;;22.60;99.90;;;;;;4931249;28;20035;-86
2023/04/01 11:16:24;;;;;;;2.35;0.85;;;20.20;99.90;;;;;;4932583;28;20051;-86
2023/04/01 11:19:08;;;;;;;1.50;0.82;;;19.80;99.90;;;;;;4932424;28;20043;-86
2023/04/01 11:21:40;;;;;;;2.15;0.90;;;18.90;99.90;;;;;;4932444;28;20397;-86
2023/04/01 11:24:08;;;;;;;2.78;1.00;;;18.60;99.90;;;;;;4932554;28;20035;-86
2023/04/01 11:27:09;;;;;;;1.77;0.93;;;18.70;99.90;;;;;;4931738;28;20577;-86
2023/04/01 11:29:44;;;;;;;2.50;1.00;;;18.90;99.90;;;;;;4932039;29;20081;-85
2023/04/01 11:32:12;;;;;;;2.00;1.00;;;18.70;99.90;;;;;;4932293;29;20165;-85
2023/04/01 11:35:03;;;;;;;1.42;0.80;;;18.80;99.90;;;;;;4932221;29;20085;-85
2023/04/01 11:37:31;;;;;;;2.20;0.98;;;17.60;99.90;;;;;;4932323;29;20055;-86
2023/04/01 11:40:29;;;;;;;1.90;1.00;;;16.90;99.90;;;;;;4931922;29;20597;-85
2023/04/01 11:43:17;;;;;;;1.65;0.90;;;16.30;99.90;;;;;;4930978;29;20478;-86
2023/04/01 11:46:07;;;;;;;2.60;1.13;;;16.30;99.90;;;;;;4941535;29;20034;-85
2023/04/01 11:48:50;;;;;;;3.83;1.60;;;17.10;99.90;;;;;;4951195;28;20031;-85
2023/04/01 11:51:41;;;;;;;2.85;1.20;;;21.00;99.90;;;;;;4951225;28;20029;-86
2023/04/01 11:54:44;;;;;;;2.42;0.90;;;24.20;99.90;;;;;;4950856;28;20494;-86
2023/04/01 11:57:28;;;;;;;2.63;1.42;;;25.70;99.90;;;;;;4951152;28;20023;-86
2023/04/01 12:00:35;;;;;;;1.77;0.70;;;25.40;99.90;;;;;;4951135;28;20032;-86
2023/04/01 12:03:36;;;;;;;1.92;1.00;;;25.10;99.90;;;;;;4950675;29;20031;-86
2023/04/01 12:06:39;;;;;;;1.23;0.80;;;26.20;99.90;;;;;;4951124;28;20058;-86
2023/04/01 12:09:15;;;;;;;1.70;0.77;;;24.40;99.90;;;;;;4948647;29;20036;-86
2023/04/01 12:12:00;;;;;;;1.55;0.80;;;21.40;99.90;;;;;;4948800;29;20065;-85
2023/04/01 12:14:49;;;;;;;1.90;1.00;;;21.00;99.90;;;;;;4948755;29;20062;-86
2023/04/01 12:17:15;;;;;;;0.90;0.70;;;21.00;99.90;;;;;;4935668;29;20454;-86
2023/04/01 12:20:15;;;;;;;2.63;1.00;;;21.20;99.90;;;;;;4951944;29;20196;-86
2023/04/01 12:22:59;;;;;;;1.25;0.70;;;20.40;99.90;;;;;;4951925;29;20464;-86
2023/04/01 12:26:04;;;;;;;1.50;0.52;;;19.70;99.90;;;;;;4951752;29;20031;-86
2023/04/01 12:28:54;;;;;;;1.83;0.80;;;19.00;99.90;;;;;;4952075;29;20501;-85
2023/04/01 12:31:29;;;;;;;2.50;1.05;;;18.10;99.90;;;;;;4935915;29;20032;-85
2023/04/01 12:34:10;;;;;;;1.50;1.10;;;17.70;99.90;;;;;;4951972;29;20062;-85
2023/04/01 12:36:54;;;;;;;1.83;0.88;;;17.60;99.90;;;;;;4951909;29;20098;-85
2023/04/01 12:39:31;;;;;;;2.45;0.90;;;17.30;99.90;;;;;;4951345;29;20146;-85
2023/04/01 12:42:18;;;;;;;2.50;1.02;;;17.10;99.90;;;;;;4951838;29;20039;-85
2023/04/01 12:45:08;;;;;;;2.67;1.00;;;17.30;99.90;;;;;;4950727;28;20023;-85
2023/04/01 12:47:43;;;;;;;1.95;0.88;;;17.80;99.90;;;;;;4934733;28;20042;-85
2023/04/01 12:50:23;;;;;;;1.88;0.90;;;17.80;99.90;;;;;;4934703;28;20020;-85
2023/04/01 12:53:10;;;;;;;1.48;0.88;;;17.70;99.90;;;;;;4934258;28;20032;-85
2023/04/01 12:55:50;;;;;;;2.42;0.80;;;17.70;99.90;;;;;;4934553;28;20218;-85
2023/04/01 12:58:33;;;;;;;1.73;0.90;;;16.90;99.90;;;;;;4934372;29;20083;-85
2023/04/01 13:01:16;;;;;;;2.65;1.05;;;16.10;99.90;;;;;;4934419;28;20034;-84
2023/04/01 13:04:00;;;;;;;2.50;0.80;;;16.00;99.90;;;;;;4934496;28;20147;-86
2023/04/01 13:06:46;;;;;;;1.88;1.08;;;16.10;99.90;;;;;;4934029;29;20454;-85
2023/04/01 13:09:52;;;;;;;1.98;0.95;;;16.10;99.90;;;;;;4934397;29;20026;-85
2023/04/01 13:12:30;;;;;;;1.67;0.88;;;15.60;99.90;;;;;;4934331;29;20043;-85
2023/04/01 13:15:05;;;;;;;2.72;0.93;;;15.70;99.90;;;;;;4934435;28;20474;-85
2023/04/01 13:17:55;;;;;;;1.80;1.15;;;15.70;99.90;;;;;;4933012;28;20036;-85
2023/04/01 13:20:58;;;;;;;2.85;0.90;;;15.70;99.90;;;;;;4934200;28;20078;-85
2023/04/01 13:24:05;;;;;;;3.42;1.80;;;16.30;99.90;;;;;;4934374;29;20019;-85
2023/04/01 13:26:40;;;;;;;2.63;1.40;;;17.00;99.90;;;;;;4939464;29;20071;-85
2023/04/01 13:29:21;;;;;;;4.60;2.33;;;17.60;99.90;;;;;;4951162;28;20070;-85
2023/04/01 13:32:06;;;;;;;4.78;1.10;;;19.20;99.90;;;;;;4951139;28;20027;-86
2023/04/01 13:34:36;;;;;;;1.75;0.95;;;21.80;99.90;;;;;;4950873;29;20027;-85